createdAt,value
2023-05-14T00:01:53.227Z,79.10
2023-05-14T00:04:20.183Z,80.30
2023-05-14T00:06:47.095Z,80.30
2023-05-14T00:09:13.984Z,80.10
2023-05-14T00:11:40.926Z,81.00
2023-05-14T00:14:07.813Z,81.50
2023-05-14T00:16:34.821Z,80.90
2023-05-14T00:19:01.847Z,80.40
2023-05-14T00:21:28.751Z,80.70
2023-05-14T00:23:55.688Z,80.90
2023-05-14T00:26:22.696Z,81.10
2023-05-14T00:28:49.812Z,80.90
2023-05-14T00:31:16.744Z,81.20
2023-05-14T00:33:43.662Z,81.00
2023-05-14T00:36:10.847Z,81.10
2023-05-14T00:38:37.770Z,82.30
2023-05-14T00:41:04.779Z,82.70
2023-05-14T00:43:33.181Z,81.70
2023-05-14T00:46:00.404Z,82.00
2023-05-14T00:48:27.342Z,81.90
2023-05-14T00:50:54.432Z,82.20
2023-05-14T00:53:21.626Z,81.90
2023-05-14T00:55:50.057Z,82.70
2023-05-14T00:58:18.061Z,82.50
2023-05-14T01:00:45.449Z,83.10
2023-05-14T01:03:12.436Z,83.20
2023-05-14T01:06:29.216Z,83.40
2023-05-14T01:09:09.175Z,84.60
2023-05-14T01:12:02.952Z,84.00
2023-05-14T01:14:59.626Z,83.80
2023-05-14T01:17:30.367Z,84.00
2023-05-14T01:19:58.148Z,84.00
2023-05-14T01:22:25.467Z,83.80
2023-05-14T01:24:52.352Z,84.20
2023-05-14T01:27:34.480Z,84.10
2023-05-14T01:30:35.483Z,85.20
2023-05-14T01:33:06.883Z,85.00
2023-05-14T01:35:34.033Z,84.80
2023-05-14T01:38:05.244Z,84.70
2023-05-14T01:40:33.908Z,85.00
2023-05-14T01:43:02.560Z,84.60
2023-05-14T01:45:31.073Z,84.60
2023-05-14T01:47:59.647Z,84.60
2023-05-14T01:50:26.617Z,84.80
2023-05-14T01:52:56.350Z,84.90
2023-05-14T01:55:26.966Z,84.80
2023-05-14T01:57:54.518Z,84.90
2023-05-14T02:00:23.931Z,84.60
2023-05-14T02:02:51.190Z,85.00
2023-05-14T02:05:18.210Z,84.70
2023-05-14T02:07:45.151Z,85.20
2023-05-14T02:10:12.048Z,85.60
2023-05-14T02:12:38.931Z,85.60
2023-05-14T02:15:06.560Z,85.50
2023-05-14T02:17:33.638Z,85.70
2023-05-14T02:20:00.712Z,85.70
2023-05-14T02:22:27.555Z,86.00
2023-05-14T02:24:54.410Z,86.00
2023-05-14T02:27:21.393Z,85.80
2023-05-14T02:29:48.253Z,85.70
2023-05-14T02:32:15.269Z,86.20
2023-05-14T02:34:42.134Z,86.00
2023-05-14T02:37:09.023Z,85.90
2023-05-14T02:39:35.889Z,85.60
2023-05-14T02:42:02.752Z,85.30
2023-05-14T02:44:31.662Z,85.40
2023-05-14T02:46:58.616Z,85.60
2023-05-14T02:49:25.563Z,86.30
2023-05-14T02:51:54.319Z,86.40
2023-05-14T02:54:21.313Z,86.70
2023-05-14T02:56:48.380Z,87.00
2023-05-14T02:59:15.281Z,87.20
2023-05-14T03:01:42.603Z,87.40
2023-05-14T03:04:10.052Z,87.70
2023-05-14T03:06:36.940Z,87.70
2023-05-14T03:09:03.872Z,87.80
2023-05-14T03:11:30.896Z,87.80
2023-05-14T03:13:57.814Z,88.00
2023-05-14T03:16:24.795Z,88.20
2023-05-14T03:18:51.706Z,87.50
2023-05-14T03:21:18.732Z,88.00
2023-05-14T03:23:45.724Z,87.60
2023-05-14T03:26:12.657Z,87.90
2023-05-14T03:28:40.799Z,87.50
2023-05-14T03:31:07.827Z,87.50
2023-05-14T03:33:34.781Z,87.50
2023-05-14T03:36:01.740Z,87.60
2023-05-14T03:38:28.635Z,87.70
2023-05-14T03:40:55.606Z,87.70
2023-05-14T03:43:22.494Z,88.00
2023-05-14T03:45:52.529Z,88.30
2023-05-14T03:48:20.516Z,88.20
2023-05-14T03:50:47.674Z,88.60
2023-05-14T03:53:14.679Z,88.60
2023-05-14T03:55:41.576Z,88.70
2023-05-14T03:58:14.148Z,88.70
2023-05-14T04:00:44.425Z,88.70
2023-05-14T04:03:11.818Z,88.70
2023-05-14T04:05:38.876Z,88.20
2023-05-14T04:08:06.159Z,88.50
2023-05-14T04:10:33.102Z,88.60
2023-05-14T04:13:00.799Z,88.30
2023-05-14T04:15:32.117Z,88.10
2023-05-14T04:17:59.089Z,88.50
2023-05-14T04:20:26.078Z,88.00
2023-05-14T04:22:54.088Z,88.10
2023-05-14T04:25:21.055Z,88.70
2023-05-14T04:27:47.948Z,88.50
2023-05-14T04:30:15.051Z,88.80
2023-05-14T04:32:41.997Z,88.40
2023-05-14T04:35:10.216Z,88.70
2023-05-14T04:37:37.260Z,88.70
2023-05-14T04:40:05.778Z,88.60
2023-05-14T04:42:32.700Z,88.70
2023-05-14T04:44:59.616Z,88.30
2023-05-14T04:47:26.652Z,88.30
2023-05-14T04:49:53.551Z,88.40
2023-05-14T04:52:20.472Z,88.60
2023-05-14T04:54:47.421Z,88.30
2023-05-14T04:57:14.394Z,88.40
2023-05-14T04:59:41.309Z,88.50
2023-05-14T05:02:08.383Z,88.80
2023-05-14T05:04:35.291Z,88.70
2023-05-14T05:07:02.166Z,88.80
2023-05-14T05:09:29.045Z,88.80
2023-05-14T05:11:56.056Z,88.90
2023-05-14T05:14:22.938Z,89.20
2023-05-14T05:16:50.716Z,89.50
2023-05-14T05:19:17.790Z,89.40
2023-05-14T05:21:44.735Z,89.30
2023-05-14T05:24:11.641Z,89.60
2023-05-14T05:26:38.518Z,89.50
2023-05-14T05:29:05.996Z,89.40
2023-05-14T05:31:33.068Z,89.60
2023-05-14T05:34:00.742Z,89.70
2023-05-14T05:36:27.647Z,90.10
2023-05-14T05:38:55.426Z,90.00
2023-05-14T05:41:22.533Z,90.00
2023-05-14T05:43:49.444Z,89.60
2023-05-14T05:46:16.438Z,89.50
2023-05-14T05:48:43.363Z,89.50
2023-05-14T05:51:10.296Z,89.60
2023-05-14T05:53:37.208Z,89.70
2023-05-14T05:56:04.139Z,89.50
2023-05-14T05:58:31.013Z,89.60
2023-05-14T06:00:58.227Z,89.30
2023-05-14T06:03:25.303Z,89.10
2023-05-14T06:05:52.709Z,88.80
2023-05-14T06:08:19.737Z,88.50
2023-05-14T06:10:47.672Z,88.10
2023-05-14T06:13:14.714Z,87.80
2023-05-14T06:15:41.672Z,87.80
2023-05-14T06:18:08.745Z,87.70
2023-05-14T06:20:35.735Z,87.40
2023-05-14T06:23:02.624Z,86.80
2023-05-14T06:25:29.560Z,86.50
2023-05-14T06:27:56.469Z,86.60
2023-05-14T06:30:23.656Z,86.90
2023-05-14T06:32:51.760Z,86.70
2023-05-14T06:35:19.215Z,86.30
2023-05-14T06:37:46.261Z,86.20
2023-05-14T06:40:15.652Z,86.00
2023-05-14T06:42:42.561Z,85.50
2023-05-14T06:45:09.768Z,84.20
2023-05-14T06:47:36.710Z,83.70
2023-05-14T06:50:03.870Z,82.20
2023-05-14T06:52:30.792Z,81.60
2023-05-14T06:54:57.671Z,79.90
2023-05-14T06:57:24.711Z,79.90
2023-05-14T06:59:51.621Z,80.90
2023-05-14T07:02:18.535Z,80.40
2023-05-14T07:04:45.699Z,80.20
2023-05-14T07:07:15.444Z,80.00
2023-05-14T07:09:42.748Z,79.90
2023-05-14T07:12:09.736Z,77.10
2023-05-14T07:14:36.653Z,77.00
2023-05-14T07:17:03.675Z,76.00
2023-05-14T07:19:30.677Z,75.00
2023-05-14T07:21:58.124Z,74.40
2023-05-14T07:24:25.016Z,74.50
2023-05-14T07:26:51.954Z,73.60
2023-05-14T07:29:18.841Z,73.00
2023-05-14T07:31:45.760Z,72.40
2023-05-14T07:34:12.861Z,72.20
2023-05-14T07:36:39.859Z,71.80
2023-05-14T07:39:06.758Z,71.70
2023-05-14T07:41:33.702Z,70.90
2023-05-14T07:44:00.682Z,71.30
2023-05-14T07:46:27.573Z,70.70
2023-05-14T07:48:54.495Z,70.70
2023-05-14T07:51:21.381Z,69.50
2023-05-14T07:53:48.266Z,69.60
2023-05-14T07:56:15.235Z,68.30
2023-05-14T07:58:42.166Z,67.40
2023-05-14T08:01:09.217Z,67.10
2023-05-14T08:03:36.242Z,67.20
2023-05-14T08:06:03.926Z,66.40
2023-05-14T08:08:30.980Z,66.20
2023-05-14T08:10:57.975Z,65.00
2023-05-14T08:13:24.899Z,65.20
2023-05-14T08:15:52.280Z,64.70
2023-05-14T08:18:19.173Z,64.30
2023-05-14T08:20:46.088Z,63.30
2023-05-14T08:23:13.052Z,63.20
2023-05-14T08:25:40.059Z,62.80
2023-05-14T08:28:07.584Z,61.90
2023-05-14T08:30:34.688Z,60.00
2023-05-14T08:33:21.113Z,59.90
2023-05-14T08:36:08.781Z,60.30
2023-05-14T08:38:35.719Z,58.80
2023-05-14T08:41:05.882Z,59.20
2023-05-14T08:44:15.027Z,58.00
2023-05-14T08:46:42.234Z,57.90
2023-05-14T08:49:43.011Z,58.20
2023-05-14T08:52:10.729Z,58.10
2023-05-14T08:54:38.225Z,57.20
2023-05-14T08:57:06.058Z,57.10
2023-05-14T08:59:32.963Z,55.90
2023-05-14T09:02:05.069Z,53.40
2023-05-14T09:04:32.840Z,53.20
2023-05-14T09:07:02.685Z,53.40
2023-05-14T09:09:30.749Z,51.30
2023-05-14T09:11:57.690Z,51.20
2023-05-14T09:14:24.592Z,50.20
2023-05-14T09:16:52.213Z,49.90
2023-05-14T09:19:19.899Z,49.90
2023-05-14T09:21:49.081Z,48.30
2023-05-14T09:24:21.418Z,48.20
2023-05-14T09:26:54.906Z,48.80
2023-05-14T09:29:21.940Z,49.10
2023-05-14T09:31:51.594Z,48.70
2023-05-14T09:34:30.512Z,46.50
2023-05-14T09:37:03.016Z,45.50
2023-05-14T09:39:31.626Z,46.10
2023-05-14T09:41:58.632Z,45.20
2023-05-14T09:44:26.073Z,44.50
2023-05-14T09:46:54.285Z,45.30
2023-05-14T09:49:21.623Z,44.70
2023-05-14T09:51:51.928Z,43.60
2023-05-14T09:54:18.908Z,43.70
2023-05-14T09:56:45.855Z,43.00
2023-05-14T09:59:12.810Z,41.90
2023-05-14T10:01:43.313Z,43.00
2023-05-14T10:04:11.195Z,41.70
2023-05-14T10:06:39.757Z,40.60
2023-05-14T10:09:13.023Z,39.50
2023-05-14T10:11:44.325Z,39.20
2023-05-14T10:14:21.029Z,38.80
2023-05-14T10:16:50.836Z,38.90
2023-05-14T10:19:20.815Z,39.20
2023-05-14T10:21:57.412Z,38.80
2023-05-14T10:24:26.000Z,38.40
2023-05-14T10:26:53.533Z,38.00
2023-05-14T10:29:20.724Z,39.20
2023-05-14T10:31:55.799Z,39.20
2023-05-14T10:34:43.826Z,39.60
2023-05-14T10:37:17.260Z,39.60
2023-05-14T10:39:58.245Z,39.40
2023-05-14T10:42:39.644Z,40.10
2023-05-14T10:45:08.745Z,40.20
2023-05-14T10:47:38.112Z,40.30
2023-05-14T10:50:11.139Z,41.10
2023-05-14T10:52:38.035Z,40.70
2023-05-14T10:55:10.777Z,40.90
2023-05-14T10:57:40.200Z,40.50
2023-05-14T11:00:08.946Z,40.70
2023-05-14T11:02:38.620Z,40.00
2023-05-14T11:05:13.768Z,39.00
2023-05-14T11:07:43.688Z,39.10
2023-05-14T11:10:19.265Z,39.10
2023-05-14T11:12:51.022Z,38.50
2023-05-14T11:15:23.461Z,38.40
2023-05-14T11:17:53.624Z,37.90
2023-05-14T11:20:21.441Z,38.40
2023-05-14T11:22:51.686Z,38.40
2023-05-14T11:25:18.925Z,38.20
2023-05-14T11:27:47.448Z,39.20
2023-05-14T11:30:21.758Z,38.60
2023-05-14T11:32:50.664Z,37.50
2023-05-14T11:35:18.501Z,37.80
2023-05-14T11:37:52.282Z,39.00
2023-05-14T11:40:19.338Z,39.60
2023-05-14T11:42:46.303Z,39.80
2023-05-14T11:45:23.646Z,39.20
2023-05-14T11:47:50.554Z,39.90
2023-05-14T11:50:17.467Z,38.90
2023-05-14T11:52:44.364Z,38.20
2023-05-14T11:55:12.732Z,37.90
2023-05-14T11:57:40.859Z,37.10
2023-05-14T12:00:16.720Z,37.20
2023-05-14T12:02:44.009Z,37.90
2023-05-14T12:05:13.610Z,36.50
2023-05-14T12:07:42.002Z,37.40
2023-05-14T12:10:12.953Z,36.20
2023-05-14T12:12:40.097Z,36.60
2023-05-14T12:15:14.329Z,35.60
2023-05-14T12:17:41.979Z,36.50
2023-05-14T12:20:11.140Z,36.00
2023-05-14T12:22:38.808Z,37.30
2023-05-14T12:25:14.773Z,37.10
2023-05-14T12:27:44.822Z,36.70
2023-05-14T12:30:21.273Z,37.30
2023-05-14T12:32:52.032Z,36.60
2023-05-14T12:35:20.582Z,35.90
2023-05-14T12:37:47.632Z,35.30
2023-05-14T12:40:14.814Z,34.30
2023-05-14T12:42:42.067Z,34.50
2023-05-14T12:45:09.577Z,34.40
2023-05-14T12:47:37.475Z,33.60
2023-05-14T12:50:06.080Z,34.00
2023-05-14T12:52:38.402Z,36.70
2023-05-14T12:55:09.268Z,38.10
2023-05-14T12:57:38.868Z,38.50
2023-05-14T13:00:08.436Z,38.70
2023-05-14T13:02:42.721Z,38.90
2023-05-14T13:05:11.615Z,39.90
2023-05-14T13:07:38.848Z,39.60
2023-05-14T13:10:06.739Z,40.00
2023-05-14T13:12:33.964Z,40.30
2023-05-14T13:15:00.908Z,40.50
2023-05-14T13:17:27.910Z,41.30
2023-05-14T13:19:54.920Z,41.30
2023-05-14T13:22:21.802Z,41.70
2023-05-14T13:24:48.679Z,42.00
2023-05-14T13:27:15.663Z,42.30
2023-05-14T13:29:42.593Z,42.80
2023-05-14T13:32:09.520Z,43.10
2023-05-14T13:34:36.481Z,44.00
2023-05-14T13:37:04.022Z,43.80
2023-05-14T13:39:31.016Z,43.70
2023-05-14T13:41:58.012Z,44.00
2023-05-14T13:44:25.103Z,44.00
2023-05-14T13:46:52.015Z,43.80
2023-05-14T13:49:18.982Z,44.00
2023-05-14T13:51:45.987Z,44.10
2023-05-14T13:54:12.853Z,44.30
2023-05-14T13:56:39.741Z,44.00
2023-05-14T13:59:06.677Z,43.90
2023-05-14T14:01:33.656Z,44.10
2023-05-14T14:04:00.610Z,44.10
2023-05-14T14:06:27.567Z,44.00
2023-05-14T14:08:54.512Z,44.30
2023-05-14T14:11:21.919Z,45.00
2023-05-14T14:13:48.864Z,45.10
2023-05-14T14:16:16.249Z,44.70
2023-05-14T14:18:43.437Z,44.60
2023-05-14T14:21:10.707Z,44.10
2023-05-14T14:23:37.587Z,44.10
2023-05-14T14:26:04.607Z,45.00
2023-05-14T14:28:31.571Z,44.80
2023-05-14T14:30:58.593Z,44.60
2023-05-14T14:33:25.827Z,44.80
2023-05-14T14:35:52.962Z,45.30
2023-05-14T14:38:19.887Z,45.50
2023-05-14T14:40:46.856Z,45.70
2023-05-14T14:43:13.728Z,45.70
2023-05-14T14:45:40.662Z,45.60
2023-05-14T14:48:33.794Z,45.60
2023-05-14T14:51:01.551Z,45.80
2023-05-14T14:53:28.481Z,46.10
2023-05-14T14:55:56.220Z,46.30
2023-05-14T14:58:23.785Z,46.50
2023-05-14T15:00:54.038Z,46.60
2023-05-14T15:03:21.877Z,46.70
2023-05-14T15:05:49.450Z,46.80
2023-05-14T15:08:16.427Z,47.20
2023-05-14T15:10:44.943Z,47.70
2023-05-14T15:13:12.809Z,47.90
2023-05-14T15:15:39.732Z,47.80
2023-05-14T15:18:06.695Z,47.70
2023-05-14T15:20:33.873Z,46.70
2023-05-14T15:23:00.785Z,46.50
2023-05-14T15:25:28.660Z,46.60
2023-05-14T15:27:55.537Z,46.80
2023-05-14T15:30:22.471Z,47.30
2023-05-14T15:32:49.948Z,47.60
2023-05-14T15:35:17.023Z,48.00
2023-05-14T15:37:45.111Z,48.10
2023-05-14T15:40:12.602Z,47.10
2023-05-14T15:42:43.878Z,46.80
2023-05-14T15:45:14.700Z,46.80
2023-05-14T15:47:42.034Z,46.90
2023-05-14T15:50:09.370Z,45.90
2023-05-14T15:52:36.562Z,45.70
2023-05-14T15:55:06.516Z,45.10
2023-05-14T15:57:33.938Z,45.30
2023-05-14T16:00:00.887Z,45.30
2023-05-14T16:02:30.477Z,45.80
2023-05-14T16:04:57.511Z,45.90
2023-05-14T16:07:24.450Z,45.80
2023-05-14T16:09:51.732Z,45.90
2023-05-14T16:12:18.717Z,45.90
2023-05-14T16:14:45.693Z,46.00
2023-05-14T16:17:12.704Z,45.80
2023-05-14T16:19:39.903Z,46.00
2023-05-14T16:22:06.881Z,46.20
2023-05-14T16:24:33.830Z,46.70
2023-05-14T16:27:00.855Z,46.50
2023-05-14T16:29:27.900Z,46.30
2023-05-14T16:31:55.041Z,46.50
2023-05-14T16:34:22.046Z,46.60
2023-05-14T16:36:49.017Z,46.70
2023-05-14T16:39:16.564Z,46.90
2023-05-14T16:41:43.474Z,47.20
2023-05-14T16:44:10.631Z,47.50
2023-05-14T16:46:37.862Z,47.90
2023-05-14T16:49:04.837Z,48.10
2023-05-14T16:51:31.773Z,48.30
2023-05-14T16:53:58.748Z,48.70
2023-05-14T16:56:26.491Z,49.20
2023-05-14T16:58:53.532Z,49.00
2023-05-14T17:01:20.638Z,49.50
2023-05-14T17:03:47.649Z,49.60
2023-05-14T17:06:14.556Z,49.90
2023-05-14T17:08:41.466Z,50.10
2023-05-14T17:11:08.375Z,50.20
2023-05-14T17:13:35.643Z,50.20
2023-05-14T17:16:02.640Z,50.40
2023-05-14T17:18:29.824Z,50.50
2023-05-14T17:20:56.891Z,50.70
2023-05-14T17:23:23.783Z,50.90
2023-05-14T17:25:50.750Z,51.00
2023-05-14T17:28:17.651Z,51.30
2023-05-14T17:30:44.551Z,51.60
2023-05-14T17:33:11.701Z,52.00
2023-05-14T17:35:38.734Z,51.90
2023-05-14T17:38:05.652Z,52.20
2023-05-14T17:40:33.423Z,52.20
2023-05-14T17:43:00.500Z,52.70
2023-05-14T17:45:29.454Z,53.30
2023-05-14T17:47:59.253Z,53.00
2023-05-14T17:50:26.270Z,53.60
2023-05-14T17:52:53.976Z,53.80
2023-05-14T17:55:21.356Z,53.90
2023-05-14T17:57:48.306Z,54.10
2023-05-14T18:00:15.524Z,53.90
2023-05-14T18:02:42.476Z,54.00
2023-05-14T18:05:09.653Z,54.00
2023-05-14T18:07:36.779Z,54.00
2023-05-14T18:10:04.473Z,53.90
2023-05-14T18:12:31.411Z,54.00
2023-05-14T18:14:58.306Z,53.90
2023-05-14T18:17:25.327Z,53.90
2023-05-14T18:19:52.258Z,54.10
2023-05-14T18:22:21.480Z,54.20
2023-05-14T18:24:48.596Z,54.10
2023-05-14T18:27:15.674Z,54.20
2023-05-14T18:29:43.333Z,54.30
2023-05-14T18:32:10.251Z,54.20
2023-05-14T18:34:37.155Z,54.50
2023-05-14T18:37:04.138Z,54.40
2023-05-14T18:39:31.067Z,54.50
2023-05-14T18:41:57.992Z,54.80
2023-05-14T18:44:24.894Z,54.70
2023-05-14T18:46:52.309Z,54.70
2023-05-14T18:49:19.212Z,54.80
2023-05-14T18:51:46.837Z,54.80
2023-05-14T18:54:13.724Z,55.00
2023-05-14T18:56:46.767Z,55.10
2023-05-14T18:59:14.474Z,55.10
2023-05-14T19:01:41.494Z,55.30
2023-05-14T19:04:08.583Z,55.50
2023-05-14T19:06:36.145Z,55.80
2023-05-14T19:09:04.280Z,56.10
2023-05-14T19:11:31.223Z,56.20
2023-05-14T19:13:58.137Z,56.30
2023-05-14T19:16:25.107Z,56.50
2023-05-14T19:18:52.330Z,56.70
2023-05-14T19:21:19.360Z,57.00
2023-05-14T19:23:46.404Z,56.90
2023-05-14T19:26:13.277Z,57.30
2023-05-14T19:28:40.390Z,57.50
2023-05-14T19:31:07.434Z,57.50
2023-05-14T19:33:34.372Z,57.50
2023-05-14T19:36:01.238Z,57.50
2023-05-14T19:38:28.140Z,57.70
2023-05-14T19:40:56.898Z,58.00
2023-05-14T19:43:25.597Z,57.90
2023-05-14T19:45:52.575Z,58.20
2023-05-14T19:48:19.638Z,58.20
2023-05-14T19:50:47.329Z,58.50
2023-05-14T19:53:14.629Z,58.80
2023-05-14T19:55:41.791Z,58.80
2023-05-14T19:58:08.909Z,58.90
2023-05-14T20:00:37.067Z,59.30
2023-05-14T20:03:05.758Z,59.70
2023-05-14T20:05:34.306Z,59.90
2023-05-14T20:08:01.265Z,60.00
2023-05-14T20:10:28.480Z,60.10
2023-05-14T20:12:55.591Z,60.00
2023-05-14T20:15:22.499Z,60.40
2023-05-14T20:17:49.466Z,60.70
2023-05-14T20:20:16.658Z,60.90
2023-05-14T20:22:44.079Z,61.10
2023-05-14T20:25:11.153Z,61.10
2023-05-14T20:27:38.254Z,60.80
2023-05-14T20:30:07.470Z,61.20
2023-05-14T20:32:34.585Z,61.10
2023-05-14T20:35:02.297Z,61.40
2023-05-14T20:37:30.470Z,61.30
2023-05-14T20:39:57.469Z,61.40
2023-05-14T20:42:25.800Z,61.50
2023-05-14T20:44:53.668Z,61.70
2023-05-14T20:47:24.166Z,61.80
2023-05-14T20:49:51.457Z,61.70
2023-05-14T20:52:18.922Z,62.00
2023-05-14T20:54:46.174Z,62.00
2023-05-14T20:57:17.829Z,62.10
2023-05-14T20:59:46.011Z,62.20
2023-05-14T21:02:13.039Z,62.30
2023-05-14T21:04:40.070Z,62.50
2023-05-14T21:07:07.346Z,62.70
2023-05-14T21:09:34.235Z,62.50
2023-05-14T21:12:01.091Z,62.50
2023-05-14T21:14:27.942Z,62.90
2023-05-14T21:16:54.836Z,62.60
2023-05-14T21:19:23.267Z,63.00
2023-05-14T21:21:50.338Z,62.90
2023-05-14T21:24:17.268Z,63.10
2023-05-14T21:26:44.149Z,63.20
2023-05-14T21:29:11.325Z,63.70
2023-05-14T21:31:38.286Z,64.00
2023-05-14T21:34:05.359Z,64.10
2023-05-14T21:36:32.293Z,65.20
2023-05-14T21:38:59.197Z,65.60
2023-05-14T21:41:26.222Z,65.80
2023-05-14T21:43:53.203Z,66.20
2023-05-14T21:46:20.090Z,66.60
2023-05-14T21:48:47.152Z,66.50
2023-05-14T21:51:14.121Z,67.00
2023-05-14T21:53:41.029Z,67.10
2023-05-14T21:56:08.285Z,67.30
2023-05-14T21:58:35.784Z,67.70
2023-05-14T22:01:02.766Z,69.00
2023-05-14T22:03:29.710Z,67.90
2023-05-14T22:05:56.958Z,68.10
2023-05-14T22:08:24.152Z,68.50
2023-05-14T22:10:51.050Z,68.70
2023-05-14T22:13:17.926Z,68.90
2023-05-14T22:18:12.822Z,69.30
2023-05-14T22:20:40.099Z,69.30
2023-05-14T22:23:07.142Z,69.50
2023-05-14T22:25:34.283Z,69.70
2023-05-14T22:28:01.197Z,70.30
2023-05-14T22:30:28.089Z,71.00
2023-05-14T22:32:54.977Z,71.50
2023-05-14T22:35:22.149Z,71.40
2023-05-14T22:37:49.109Z,71.40
2023-05-14T22:40:16.101Z,72.10
2023-05-14T22:42:43.023Z,72.00
2023-05-14T22:45:10.463Z,72.60
2023-05-14T22:47:38.459Z,72.60
2023-05-14T22:50:11.211Z,73.30
2023-05-14T22:52:39.246Z,72.80
2023-05-14T22:55:07.202Z,73.60
2023-05-14T22:57:34.566Z,73.20
2023-05-14T23:00:01.566Z,73.70
2023-05-14T23:02:28.545Z,73.40
2023-05-14T23:04:55.770Z,73.60
2023-05-14T23:07:22.870Z,73.70
2023-05-14T23:09:49.771Z,73.90
2023-05-14T23:12:16.731Z,74.30
2023-05-14T23:14:43.605Z,74.40
2023-05-14T23:17:10.513Z,74.40
2023-05-14T23:19:37.421Z,74.10
2023-05-14T23:22:04.465Z,74.30
2023-05-14T23:24:31.347Z,74.20
2023-05-14T23:26:58.243Z,74.20
2023-05-14T23:29:25.194Z,74.20
2023-05-14T23:31:52.145Z,74.40
2023-05-14T23:34:19.033Z,74.70
2023-05-14T23:36:46.028Z,74.50
2023-05-14T23:39:12.971Z,74.50
2023-05-14T23:41:39.861Z,74.50
2023-05-14T23:44:07.285Z,74.30
2023-05-14T23:46:34.336Z,74.60
2023-05-14T23:49:01.475Z,74.50
2023-05-14T23:51:28.426Z,74.60
2023-05-14T23:53:56.358Z,74.80
2023-05-14T23:56:30.184Z,75.00
2023-05-14T23:58:57.175Z,74.90
